< Cyclone 198104 1981 Season Cyclone 198106 >
Cyclone 198105 (EDNA)
General InformationTrack Information on Google Maps || ResourceGoogle EarthGE AnimationAtom FeedGeoJSON
Detalied Best Track (Time Zone = UTC)
Year Month Day Hour Lat. Long. Pressure (hPa) Wind (kt) Class Image Chart
1980 12 20 00 -10.0 117.4 1005 0 0 -- --
1980 12 20 06 -9.7 116.3 1005 0 0 -- --
1980 12 20 12 -10.0 115.5 1004 0 0 -- --
1980 12 20 18 -10.6 115.5 1004 0 0 -- --
1980 12 21 00 -10.9 115.3 1004 0 0 -- --
1980 12 21 06 -10.9 114.9 1004 0 0 -- --
1980 12 21 12 -10.9 114.4 1004 0 0 -- --
1980 12 21 18 -11.1 114.0 1003 0 0 -- --
1980 12 22 00 -11.6 113.4 1003 0 0 -- --
1980 12 22 06 -11.8 112.4 1003 0 0 -- --
1980 12 22 12 -11.7 111.0 1002 0 0 -- --
1980 12 22 18 -11.6 110.1 1001 0 0 -- --
1980 12 23 00 -11.6 109.0 1001 0 0 -- --
1980 12 23 06 -11.5 107.9 1000 0 0 -- --
1980 12 23 12 -11.4 106.9 999 0 0 -- --
1980 12 23 18 -11.2 105.9 996 0 0 -- --
1980 12 24 00 -10.9 105.0 994 0 0 -- --
1980 12 24 06 -10.9 104.1 994 0 0 -- --
1980 12 24 12 -10.9 103.4 994 0 0 -- --
1980 12 24 18 -11.0 102.4 994 0 0 -- --
1980 12 25 00 -11.1 100.9 994 0 0 -- --
1980 12 25 06 -11.2 99.7 997 0 0 -- --
1980 12 25 12 -11.2 98.5 1000 0 0 -- --
1980 12 25 18 -11.2 97.2 1003 0 0 -- --
1980 12 26 00 -10.9 95.9 1005 0 0 -- --
1980 12 26 06 -10.5 95.2 1006 0 0 -- --
1980 12 26 12 -10.3 94.5 1006 0 0 -- --
1980 12 26 18 -10.2 93.8 1007 0 0 -- --
1980 12 27 00 -10.0 93.0 1007 0 0 -- --
< Cyclone 198104 1981 Season Cyclone 198106 >

Help